Madison, WI

7:40 AM CDT on May 27, 2015 (GMT -0500)
Tri-County Regional | | Change Station
CLOSE
Current Station
Airport
Location: Lone Rock,
Elevation: 719 ft
Nearby Weather Stations

Elev 719 ft 43.21 °N, 90.18 °W | Updated 44 minutes ago

Overcast
Overcast
60 °F
Feels Like 60 °F
N
7
Wind Variable Wind from West

Today
High -- | Low -- °F
--% Chance of Precip.
Yesterday
High -- | Low -- °F
Precip. -- in
5:23 AM 8:25 PM
Waxing Gibbous, 67% visible
Pressure 29.88 in
Visibility 10.0 miles
Clouds Few 1300 ft
Mostly Cloudy 2900 ft
Overcast 6000 ft
Dew Point 57 °F
Humidity 90%
Rainfall 0.01 in
Snow Depth Not available.
UV 0 out of 12
Pollen 7.70 out of 12
Air Quality Not available.
Flu Activity Sporadic
METAR KLNR 271156Z AUTO 27006KT 10SM FEW013 BKN029 OVC060 16/14 A2990 RMK AO2 RAB01E13 SLP119 P0001 60001 70127 T01560139 10161 20150 51025

More Conditions Fewer Conditions

Pressure 29.88 in
Visibility 10.0 miles
Clouds Few 1300 ft
Mostly Cloudy 2900 ft
Overcast 6000 ft
Dew Point 57 °F
Humidity 90%
Rainfall 0.01 in
Snow Depth Not available.
UV 0 out of 12
Pollen 7.70 out of 12
Air Quality Not available.
Flu Activity Sporadic
METAR KLNR 271156Z AUTO 27006KT 10SM FEW013 BKN029 OVC060 16/14 A2990 RMK AO2 RAB01E13 SLP119 P0001 60001 70127 T01560139 10161 20150 51025

More Conditions Fewer Conditions

10-Day Weather Forecast

Almanac

Astronomy

May. 27, 2015 Rise Set
Actual Time
Civil Twilight
Nautical Twilight
Astronomical Twilight
Moon
Length of Visible Light
Length of Day
Tomorrow will be .
, % of the Moon is Illuminated

Today's Extremes

State Highs State Lows

Community

WunderPhotos

Upload Photos

1,824,661 photos uploaded!

WunderBlogs® & News

Nearby

Air Quality

  Air Quality AQ Index Pollutant
Not available.

Snow Depth

Station Depth Elevation

Earthquake Activity

City Distance Mag. Time & Date
Minimum magnitude displayed is 2.5.

Coastal Water Temperatures

Place Temperature

Stations

Nearby Weather Stations

Station Location Temp. Windchill Dew Point Humidity Wind Precip. Elev Updated Type